Time;durP1;ratioP1;P1;durP2;ratioP2;P2;SDS_P1;SDS_P2;PMS_P1;PMS_P2;Temp;Humidity;BMP_temperature;BMP_pressure;BME280_temperature;BME280_humidity;BME280_pressure;Samples;Min_cycle;Max_cycle;Signal;HPM_P1;HPM_P2
2023/01/29 00:01:27;;;;;;;32.88;13.85;;;3.30;99.90;;;;;;4991484;28;20491;-73
2023/01/29 00:03:53;;;;;;;38.25;15.20;;;3.30;99.90;;;;;;4994206;28;20034;-72
2023/01/29 00:06:19;;;;;;;31.13;13.25;;;3.30;99.90;;;;;;4993325;28;20088;-72
2023/01/29 00:08:45;;;;;;;28.67;13.02;;;3.30;99.90;;;;;;4992398;28;20035;-73
2023/01/29 00:11:11;;;;;;;30.40;13.38;;;3.30;99.90;;;;;;4990844;28;20031;-76
2023/01/29 00:13:37;;;;;;;34.42;13.63;;;3.30;99.90;;;;;;4995992;28;20023;-75
2023/01/29 00:16:03;;;;;;;35.65;14.32;;;3.30;99.90;;;;;;4991986;28;20403;-73
2023/01/29 00:18:29;;;;;;;31.30;14.10;;;3.30;99.90;;;;;;4993038;28;20022;-75
2023/01/29 00:20:55;;;;;;;31.63;12.48;;;3.20;99.90;;;;;;4992304;28;20031;-74
2023/01/29 00:23:22;;;;;;;32.05;13.27;;;3.20;99.90;;;;;;4994017;28;20027;-75
2023/01/29 00:25:47;;;;;;;29.00;13.30;;;3.20;99.90;;;;;;4993276;28;20371;-73
2023/01/29 00:28:14;;;;;;;33.30;13.20;;;3.20;99.90;;;;;;4993088;28;20023;-73
2023/01/29 00:30:39;;;;;;;33.92;14.18;;;3.20;99.90;;;;;;4991213;28;20027;-73
2023/01/29 00:33:05;;;;;;;28.92;13.35;;;3.30;99.90;;;;;;4996593;28;20121;-73
2023/01/29 00:35:31;;;;;;;37.72;14.07;;;3.30;99.90;;;;;;4994809;28;20029;-73
2023/01/29 00:37:57;;;;;;;34.58;14.18;;;3.30;99.90;;;;;;4993898;28;20026;-73
2023/01/29 00:40:24;;;;;;;28.33;12.15;;;3.30;99.90;;;;;;4989773;28;20046;-75
2023/01/29 00:45:37;;;;;;;;;;;3.30;99.90;;;;;;4996661;28;20041;-74
2023/01/29 00:48:03;;;;;;;29.55;13.07;;;3.30;99.90;;;;;;4992478;28;19906;-73
2023/01/29 00:50:30;;;;;;;31.05;12.98;;;3.30;99.90;;;;;;4992692;28;20034;-73
2023/01/29 00:52:55;;;;;;;31.40;13.10;;;3.30;99.90;;;;;;4992501;28;20662;-75
2023/01/29 00:55:21;;;;;;;30.00;13.02;;;3.40;99.90;;;;;;4991456;28;20022;-72
2023/01/29 00:57:47;;;;;;;27.75;12.40;;;3.30;99.90;;;;;;4990430;28;20038;-73
2023/01/29 01:00:15;;;;;;;28.33;12.93;;;3.30;99.90;;;;;;4992795;28;20483;-73
2023/01/29 01:05:26;;;;;;;30.50;12.82;;;3.30;99.90;;;;;;5008250;28;20041;-73
2023/01/29 01:07:55;;;;;;;29.35;13.50;;;3.30;99.90;;;;;;5022642;28;20031;-73
2023/01/29 01:10:23;;;;;;;29.33;12.43;;;3.30;99.90;;;;;;5007441;28;20023;-76
2023/01/29 01:13:03;;;;;;;34.13;14.13;;;3.30;99.90;;;;;;5006259;28;20736;-74
2023/01/29 01:15:40;;;;;;;32.58;13.85;;;3.30;99.90;;;;;;5021821;28;20029;-75
2023/01/29 01:18:05;;;;;;;33.58;13.38;;;3.20;99.90;;;;;;5006592;28;20018;-73
2023/01/29 01:20:34;;;;;;;28.85;13.43;;;3.20;99.90;;;;;;5006571;28;20034;-72
2023/01/29 01:22:59;;;;;;;33.92;14.13;;;3.20;99.90;;;;;;5022231;28;20038;-73
2023/01/29 01:25:26;;;;;;;32.13;14.43;;;3.20;99.90;;;;;;5007270;28;20113;-73
2023/01/29 01:27:53;;;;;;;31.88;13.95;;;3.20;99.90;;;;;;5007001;28;20046;-73
2023/01/29 01:30:19;;;;;;;33.20;14.23;;;3.20;99.90;;;;;;5005890;28;20034;-73
2023/01/29 01:32:44;;;;;;;32.40;13.93;;;3.20;99.90;;;;;;5007127;28;20117;-72
2023/01/29 01:35:13;;;;;;;32.95;14.70;;;3.20;99.90;;;;;;5006035;28;20030;-72
2023/01/29 01:37:39;;;;;;;33.53;14.00;;;3.20;99.90;;;;;;5006511;28;20026;-71
2023/01/29 01:40:16;;;;;;;37.60;16.20;;;3.20;99.90;;;;;;5005561;28;20023;-72
2023/01/29 01:42:56;;;;;;;34.35;14.93;;;3.20;99.90;;;;;;5005228;28;20096;-75
2023/01/29 01:45:25;;;;;;;35.80;15.05;;;3.10;99.90;;;;;;5021912;28;20034;-73
2023/01/29 01:47:57;;;;;;;34.85;15.05;;;3.10;99.90;;;;;;5006221;28;20030;-73
2023/01/29 01:50:28;;;;;;;35.35;15.02;;;3.10;99.90;;;;;;5006906;28;20026;-72
2023/01/29 01:53:01;;;;;;;34.20;14.38;;;3.10;99.90;;;;;;5007068;28;20164;-73
2023/01/29 01:55:30;;;;;;;36.83;14.25;;;3.10;99.90;;;;;;5005269;28;20026;-76
2023/01/29 01:58:03;;;;;;;37.33;16.05;;;3.10;99.90;;;;;;5006706;28;20096;-73
2023/01/29 02:00:28;;;;;;;34.17;15.57;;;3.10;99.90;;;;;;5006523;28;20069;-75
2023/01/29 02:11:19;;;;;;;29.50;13.25;;;3.10;99.90;;;;;;5006506;28;20073;-73
2023/01/29 02:13:45;;;;;;;33.05;14.50;;;3.10;99.90;;;;;;5005449;28;20027;-73
2023/01/29 02:16:10;;;;;;;33.97;15.25;;;3.10;99.90;;;;;;5006209;28;20035;-73
2023/01/29 02:18:36;;;;;;;36.28;16.25;;;3.10;99.90;;;;;;5004965;28;20085;-74
2023/01/29 02:21:14;;;;;;;36.80;16.23;;;3.00;99.90;;;;;;5004586;28;20387;-74
2023/01/29 02:23:42;;;;;;;37.60;14.25;;;3.10;99.90;;;;;;5005854;28;20817;-73
2023/01/29 02:26:29;;;;;;;34.60;14.88;;;3.10;99.90;;;;;;5003250;28;20050;-73
2023/01/29 02:29:24;;;;;;;39.72;15.45;;;3.10;99.90;;;;;;5005686;28;20086;-73
2023/01/29 02:32:06;;;;;;;35.20;15.30;;;3.10;99.90;;;;;;5006410;28;20035;-73
2023/01/29 02:37:47;;;;;;;36.72;15.18;;;3.10;99.90;;;;;;5005663;28;20062;-74
2023/01/29 02:40:42;;;;;;;33.53;15.23;;;3.10;99.90;;;;;;5005576;28;20022;-73
2023/01/29 02:43:34;;;;;;;28.58;13.02;;;3.10;99.90;;;;;;4995170;28;20125;-73
2023/01/29 02:46:08;;;;;;;33.15;13.95;;;3.00;99.90;;;;;;5005926;28;20025;-73
2023/01/29 02:48:47;;;;;;;40.40;16.13;;;3.00;99.90;;;;;;5006350;28;20022;-74
2023/01/29 02:51:20;;;;;;;42.38;14.98;;;3.00;99.90;;;;;;5004440;28;20121;-73
2023/01/29 02:54:36;;;;;;;35.47;14.80;;;2.90;99.90;;;;;;5005638;28;20155;-73
2023/01/29 02:57:27;;;;;;;35.17;15.50;;;2.90;99.90;;;;;;4982783;28;20575;-75
2023/01/29 03:00:03;;;;;;;35.58;15.73;;;2.80;99.90;;;;;;4967636;28;20031;-73
2023/01/29 03:02:40;;;;;;;40.92;16.35;;;2.80;99.90;;;;;;5000313;28;20066;-75
2023/01/29 03:05:14;;;;;;;39.10;15.80;;;2.80;99.90;;;;;;5005309;28;20030;-72
2023/01/29 03:07:47;;;;;;;41.20;16.83;;;2.70;99.90;;;;;;5005093;28;20026;-73
2023/01/29 03:10:13;;;;;;;38.47;16.80;;;2.70;99.90;;;;;;5005315;28;20061;-72
2023/01/29 03:12:41;;;;;;;36.92;14.48;;;2.60;99.90;;;;;;5003444;28;20038;-72
2023/01/29 03:15:23;;;;;;;37.20;16.25;;;2.70;99.90;;;;;;5004659;28;20030;-73
2023/01/29 03:17:54;;;;;;;39.50;16.98;;;2.60;99.90;;;;;;5003558;28;20034;-74
2023/01/29 03:20:28;;;;;;;36.72;16.17;;;2.60;99.90;;;;;;5005049;28;20034;-72
2023/01/29 03:23:01;;;;;;;38.05;16.95;;;2.60;99.90;;;;;;5005141;28;20038;-74
2023/01/29 03:34:08;;;;;;;40.40;17.42;;;2.50;99.90;;;;;;5004796;28;20046;-72
2023/01/29 03:36:44;;;;;;;42.40;16.92;;;2.50;99.90;;;;;;4984821;28;20035;-72
2023/01/29 03:39:11;;;;;;;39.30;17.05;;;2.50;99.90;;;;;;4984071;28;20026;-73
2023/01/29 03:41:48;;;;;;;39.05;18.10;;;2.50;99.90;;;;;;4984992;28;20121;-73
2023/01/29 03:44:31;;;;;;;42.40;16.70;;;2.60;99.90;;;;;;4984963;28;20023;-73
2023/01/29 03:47:17;;;;;;;42.28;18.23;;;2.60;99.90;;;;;;4985081;28;20037;-73
2023/01/29 03:50:05;;;;;;;41.90;18.83;;;2.50;99.90;;;;;;4984976;28;20084;-73
2023/01/29 03:52:46;;;;;;;41.80;17.67;;;2.60;99.90;;;;;;4983783;28;20023;-75
2023/01/29 03:55:15;;;;;;;43.90;18.65;;;2.60;99.90;;;;;;4982766;28;20031;-73
2023/01/29 03:57:59;;;;;;;43.58;18.75;;;2.60;99.90;;;;;;5000741;28;20053;-73
2023/01/29 04:00:33;;;;;;;46.72;19.33;;;2.60;99.90;;;;;;5002966;28;20074;-74
2023/01/29 04:03:09;;;;;;;46.92;19.27;;;2.60;99.90;;;;;;5004150;28;20061;-72
2023/01/29 04:05:57;;;;;;;41.63;18.80;;;2.60;99.90;;;;;;5003022;28;20058;-73
2023/01/29 04:08:32;;;;;;;51.67;19.25;;;2.60;99.90;;;;;;4998139;28;20037;-73
2023/01/29 04:11:03;;;;;;;45.08;19.02;;;2.60;99.90;;;;;;4994237;28;20101;-75
2023/01/29 04:13:32;;;;;;;49.60;19.80;;;2.60;99.90;;;;;;4991907;28;20057;-75
2023/01/29 04:16:00;;;;;;;40.65;18.92;;;2.60;99.90;;;;;;4992205;28;20153;-74
2023/01/29 04:18:26;;;;;;;44.47;20.05;;;2.60;99.90;;;;;;4994554;28;20030;-73
2023/01/29 04:20:52;;;;;;;41.42;19.67;;;2.60;99.90;;;;;;4992779;28;20045;-73
2023/01/29 04:23:25;;;;;;;46.50;19.33;;;2.60;99.90;;;;;;4991989;28;20043;-74
2023/01/29 04:26:07;;;;;;;45.05;20.70;;;2.70;99.90;;;;;;4992099;28;20042;-73
2023/01/29 04:29:03;;;;;;;50.78;20.27;;;2.70;99.90;;;;;;4990025;28;20023;-72
2023/01/29 04:31:36;;;;;;;56.50;21.17;;;2.70;99.90;;;;;;4993878;28;20031;-74
2023/01/29 04:34:14;;;;;;;50.05;21.80;;;2.70;99.90;;;;;;4994206;28;20158;-75
2023/01/29 04:37:11;;;;;;;46.45;20.08;;;2.70;99.90;;;;;;4994584;28;20022;-73
2023/01/29 04:39:47;;;;;;;44.33;20.27;;;2.70;99.90;;;;;;4995719;28;20030;-74
2023/01/29 04:42:28;;;;;;;43.05;20.20;;;2.80;99.90;;;;;;4997772;28;20105;-74
2023/01/29 04:45:38;;;;;;;49.13;20.73;;;2.70;99.90;;;;;;4999811;28;20088;-74
2023/01/29 04:48:24;;;;;;;46.38;20.95;;;2.70;99.90;;;;;;5000053;28;20038;-74
2023/01/29 04:51:08;;;;;;;46.58;21.77;;;2.70;99.90;;;;;;5003648;28;20045;-72
2023/01/29 04:54:04;;;;;;;49.17;20.92;;;2.70;99.90;;;;;;4999960;28;20026;-74
2023/01/29 04:56:37;;;;;;;53.53;22.40;;;2.70;99.90;;;;;;4999503;28;20051;-73
2023/01/29 04:59:08;;;;;;;51.42;22.30;;;2.80;99.90;;;;;;4998883;28;20031;-74
2023/01/29 05:01:35;;;;;;;52.38;22.88;;;2.80;99.90;;;;;;4996450;28;20117;-73
2023/01/29 05:04:05;;;;;;;52.65;23.48;;;2.80;99.90;;;;;;4998047;28;20049;-73
2023/01/29 05:06:31;;;;;;;59.00;24.25;;;2.80;99.90;;;;;;5004356;28;20030;-73
2023/01/29 05:08:59;;;;;;;54.03;22.20;;;2.80;99.90;;;;;;4999044;28;20023;-74
2023/01/29 05:11:25;;;;;;;53.47;23.10;;;2.80;99.90;;;;;;4997364;28;20022;-73
2023/01/29 05:13:51;;;;;;;54.33;23.20;;;2.80;99.90;;;;;;5000711;28;20031;-74
2023/01/29 05:16:28;;;;;;;52.65;22.77;;;2.90;99.90;;;;;;4999788;28;20026;-73
2023/01/29 05:18:54;;;;;;;49.72;23.63;;;2.90;99.90;;;;;;4999941;28;20079;-75
2023/01/29 05:21:21;;;;;;;53.95;22.98;;;2.90;99.90;;;;;;4997733;28;20046;-72
2023/01/29 05:24:06;;;;;;;52.63;23.42;;;2.90;99.90;;;;;;4997750;28;20026;-72
2023/01/29 05:29:27;;;;;;;58.13;24.15;;;3.00;99.90;;;;;;4998385;28;20065;-75
2023/01/29 05:31:52;;;;;;;52.47;23.25;;;3.00;99.90;;;;;;4998089;28;20122;-73
2023/01/29 05:34:18;;;;;;;54.40;23.63;;;3.00;99.90;;;;;;4998616;28;20038;-74
2023/01/29 05:36:43;;;;;;;53.90;24.85;;;3.00;99.90;;;;;;4999578;28;20292;-74
2023/01/29 05:39:09;;;;;;;54.90;24.13;;;3.00;99.90;;;;;;5002636;28;20026;-75
2023/01/29 05:41:35;;;;;;;55.97;24.58;;;3.00;99.90;;;;;;5022247;28;20035;-73
2023/01/29 05:44:00;;;;;;;54.08;25.13;;;3.10;99.90;;;;;;5002344;28;20030;-72
2023/01/29 05:46:26;;;;;;;62.15;23.48;;;3.10;99.90;;;;;;5018932;28;20030;-73
2023/01/29 05:48:52;;;;;;;61.97;24.75;;;3.10;99.90;;;;;;5000424;28;20042;-73
2023/01/29 05:51:17;;;;;;;56.70;24.13;;;3.20;99.90;;;;;;4996768;28;20033;-73
2023/01/29 05:53:43;;;;;;;60.03;25.85;;;3.10;99.90;;;;;;4993985;28;20034;-73
2023/01/29 05:56:08;;;;;;;62.38;27.25;;;3.10;99.90;;;;;;4996463;28;20069;-73
2023/01/29 05:58:34;;;;;;;63.28;27.52;;;3.00;99.90;;;;;;4996915;28;20030;-73
2023/01/29 06:01:15;;;;;;;59.83;24.88;;;3.00;99.90;;;;;;4998140;28;20027;-75
2023/01/29 06:03:41;;;;;;;60.15;26.40;;;3.00;99.90;;;;;;4993497;28;20042;-73
2023/01/29 06:06:07;;;;;;;64.47;27.80;;;3.00;99.90;;;;;;4995352;28;20027;-73
2023/01/29 06:08:33;;;;;;;59.03;27.25;;;3.00;99.90;;;;;;4995213;28;20034;-72
2023/01/29 06:10:58;;;;;;;65.13;27.80;;;3.00;99.90;;;;;;4996387;28;20041;-72
2023/01/29 06:13:24;;;;;;;73.55;28.95;;;2.90;99.90;;;;;;4993505;28;20496;-73
2023/01/29 06:15:50;;;;;;;66.15;29.23;;;3.00;99.90;;;;;;4994962;28;20042;-72
2023/01/29 06:18:16;;;;;;;60.13;27.98;;;3.00;99.90;;;;;;4998855;28;20107;-74
2023/01/29 06:20:41;;;;;;;68.55;29.30;;;3.00;99.90;;;;;;4994198;28;20633;-72
2023/01/29 06:23:07;;;;;;;66.80;29.80;;;3.00;99.90;;;;;;5009501;28;20034;-71
2023/01/29 06:25:33;;;;;;;66.28;28.52;;;3.00;99.90;;;;;;4993848;28;20053;-74
2023/01/29 06:27:58;;;;;;;65.90;28.88;;;3.00;99.90;;;;;;5000432;28;20050;-72
2023/01/29 06:30:24;;;;;;;64.18;28.60;;;3.00;99.90;;;;;;5000687;28;20089;-72
2023/01/29 06:32:49;;;;;;;66.15;28.60;;;3.00;99.90;;;;;;5004011;28;20030;-72
2023/01/29 06:35:15;;;;;;;60.17;26.80;;;3.00;99.90;;;;;;5003354;28;20502;-73
2023/01/29 06:37:40;;;;;;;63.83;28.55;;;3.10;99.90;;;;;;5004557;28;20085;-70
2023/01/29 06:40:07;;;;;;;65.15;29.20;;;3.10;99.90;;;;;;5004558;28;20041;-72
2023/01/29 06:42:34;;;;;;;71.93;29.80;;;3.10;99.90;;;;;;5003456;28;20073;-70
2023/01/29 06:45:00;;;;;;;57.38;27.85;;;3.10;99.90;;;;;;5005746;28;20040;-75
2023/01/29 06:47:26;;;;;;;64.22;28.25;;;3.10;99.90;;;;;;5005848;28;20053;-71
2023/01/29 06:49:52;;;;;;;66.22;29.38;;;3.10;99.90;;;;;;5004073;28;20112;-71
2023/01/29 06:52:18;;;;;;;68.93;30.05;;;3.10;99.90;;;;;;5005406;28;20633;-71
2023/01/29 06:54:43;;;;;;;69.63;29.42;;;3.00;99.90;;;;;;5000963;28;20085;-71
2023/01/29 06:57:09;;;;;;;63.28;29.45;;;3.10;99.90;;;;;;5000509;28;20499;-71
2023/01/29 06:59:34;;;;;;;64.13;28.30;;;3.10;99.90;;;;;;5000410;28;20034;-71
2023/01/29 07:02:00;;;;;;;65.70;30.45;;;3.10;99.90;;;;;;4985479;28;20096;-71
2023/01/29 07:04:25;;;;;;;62.35;29.73;;;3.10;99.90;;;;;;4985361;28;20027;-70
2023/01/29 07:06:51;;;;;;;64.50;28.25;;;3.20;99.90;;;;;;4998785;28;20038;-72
2023/01/29 07:09:17;;;;;;;73.55;30.75;;;3.20;99.90;;;;;;4996342;28;20058;-74
2023/01/29 07:11:43;;;;;;;70.35;30.77;;;3.20;99.90;;;;;;4995000;28;20037;-73
2023/01/29 07:14:08;;;;;;;63.55;29.45;;;3.20;99.90;;;;;;4996664;28;20117;-71
2023/01/29 07:16:34;;;;;;;63.15;29.45;;;3.20;99.90;;;;;;4999761;28;20033;-71
2023/01/29 07:19:00;;;;;;;64.32;28.27;;;3.20;99.90;;;;;;4996365;28;20030;-72
2023/01/29 07:21:25;;;;;;;65.82;29.25;;;3.20;99.90;;;;;;4994853;28;20053;-74
2023/01/29 07:23:51;;;;;;;70.45;31.13;;;3.20;99.90;;;;;;4993536;28;20027;-73
2023/01/29 07:26:16;;;;;;;67.38;28.38;;;3.20;99.90;;;;;;4992894;28;20122;-73
2023/01/29 07:28:42;;;;;;;78.20;31.92;;;3.20;99.90;;;;;;4998245;28;20081;-72
2023/01/29 07:31:11;;;;;;;68.60;30.40;;;3.20;99.90;;;;;;4998187;28;20023;-74
2023/01/29 07:33:37;;;;;;;68.95;30.80;;;3.20;99.90;;;;;;5002872;28;20070;-72
2023/01/29 07:36:07;;;;;;;69.65;31.63;;;3.30;99.90;;;;;;5003395;28;20073;-73
2023/01/29 07:38:32;;;;;;;73.88;34.45;;;3.30;99.90;;;;;;5003255;28;20053;-73
2023/01/29 07:40:58;;;;;;;67.60;30.33;;;3.30;99.90;;;;;;5003330;28;20041;-71
2023/01/29 07:43:23;;;;;;;70.28;31.00;;;3.30;99.90;;;;;;5004594;28;20038;-72
2023/01/29 07:45:49;;;;;;;74.32;30.35;;;3.30;99.90;;;;;;4995261;28;20035;-73
2023/01/29 07:48:15;;;;;;;66.68;30.17;;;3.30;99.90;;;;;;4997569;28;20113;-72
2023/01/29 07:50:42;;;;;;;69.03;29.45;;;3.30;99.90;;;;;;5004760;28;20522;-73
2023/01/29 07:53:14;;;;;;;61.80;26.83;;;3.30;99.90;;;;;;5004107;28;20049;-76
2023/01/29 07:55:42;;;;;;;75.65;31.08;;;3.40;99.90;;;;;;5003924;28;20077;-73
2023/01/29 07:58:08;;;;;;;69.22;30.98;;;3.40;99.90;;;;;;5002028;28;20054;-73
2023/01/29 08:00:33;;;;;;;64.63;30.17;;;3.40;99.90;;;;;;5002122;28;20026;-73
2023/01/29 08:03:11;;;;;;;71.55;31.50;;;3.40;99.90;;;;;;5002530;28;20121;-73
2023/01/29 08:05:37;;;;;;;69.43;30.45;;;3.40;99.90;;;;;;5001102;28;20030;-73
2023/01/29 08:08:03;;;;;;;67.90;31.33;;;3.40;99.90;;;;;;5002693;28;20077;-76
2023/01/29 08:10:28;;;;;;;71.90;32.03;;;3.40;99.90;;;;;;5003047;28;20034;-72
2023/01/29 08:12:59;;;;;;;70.68;30.13;;;3.50;99.90;;;;;;5002871;28;20031;-73
2023/01/29 08:15:25;;;;;;;68.18;29.00;;;3.50;99.90;;;;;;5002720;28;20061;-74
2023/01/29 08:17:51;;;;;;;72.70;31.15;;;3.50;99.90;;;;;;5004444;28;20996;-72
2023/01/29 08:20:17;;;;;;;67.10;29.52;;;3.50;99.90;;;;;;5001943;28;20141;-72
2023/01/29 08:22:43;;;;;;;68.07;30.33;;;3.50;99.90;;;;;;5004202;28;20042;-72
2023/01/29 08:25:08;;;;;;;72.88;31.85;;;3.60;99.90;;;;;;5002482;28;20468;-72
2023/01/29 08:27:34;;;;;;;94.53;39.22;;;3.50;99.90;;;;;;5004080;28;20053;-72
2023/01/29 08:30:10;;;;;;;104.13;44.00;;;3.50;99.90;;;;;;5004231;28;20042;-72
2023/01/29 08:32:35;;;;;;;78.60;33.65;;;3.50;99.90;;;;;;5002443;28;20117;-72
2023/01/29 08:35:01;;;;;;;89.40;40.08;;;3.50;99.90;;;;;;5002670;28;20033;-73
2023/01/29 08:37:26;;;;;;;74.53;33.78;;;3.50;99.90;;;;;;5002895;28;20043;-73
2023/01/29 08:39:52;;;;;;;76.88;33.20;;;3.50;99.90;;;;;;5002565;28;20031;-72
2023/01/29 08:42:17;;;;;;;78.10;34.47;;;3.60;99.90;;;;;;5002968;28;20470;-70
2023/01/29 08:44:43;;;;;;;77.53;33.60;;;3.60;99.90;;;;;;5003697;28;20112;-73
2023/01/29 08:47:09;;;;;;;72.05;32.20;;;3.60;99.90;;;;;;4996800;28;20062;-72
2023/01/29 08:49:34;;;;;;;73.28;32.10;;;3.70;99.90;;;;;;4989797;28;20066;-71
2023/01/29 08:52:00;;;;;;;72.65;33.20;;;3.60;99.90;;;;;;4985028;28;20039;-73
2023/01/29 08:54:25;;;;;;;72.80;29.85;;;3.60;99.90;;;;;;4995744;28;20034;-72
2023/01/29 08:56:51;;;;;;;68.93;27.77;;;3.60;99.90;;;;;;4997092;28;20128;-75
2023/01/29 08:59:17;;;;;;;66.30;29.35;;;3.70;99.90;;;;;;4991104;28;20045;-72
2023/01/29 09:01:42;;;;;;;70.53;31.17;;;3.60;99.90;;;;;;4994141;28;20045;-71
2023/01/29 09:04:08;;;;;;;71.78;31.42;;;3.60;99.90;;;;;;4994651;28;20042;-71
2023/01/29 09:06:34;;;;;;;70.22;31.52;;;3.70;99.90;;;;;;4988749;28;20033;-71
2023/01/29 09:08:59;;;;;;;68.25;30.83;;;3.70;99.90;;;;;;5002585;28;20058;-73
2023/01/29 09:11:25;;;;;;;69.35;30.48;;;3.70;99.90;;;;;;4995400;28;20063;-71
2023/01/29 09:13:51;;;;;;;66.35;30.42;;;3.70;99.90;;;;;;4996843;28;20041;-72
2023/01/29 09:16:16;;;;;;;64.90;28.25;;;3.80;99.90;;;;;;4995706;28;20033;-73
2023/01/29 09:18:42;;;;;;;58.30;28.35;;;3.90;99.90;;;;;;4991240;28;20030;-73
2023/01/29 09:21:08;;;;;;;62.50;28.98;;;3.80;99.90;;;;;;4997600;28;20025;-72
2023/01/29 09:23:33;;;;;;;64.57;28.33;;;3.80;99.90;;;;;;4998297;28;20023;-72
2023/01/29 09:25:59;;;;;;;60.33;27.00;;;3.90;99.90;;;;;;4995565;28;20045;-72
2023/01/29 09:28:25;;;;;;;60.40;27.92;;;3.90;99.90;;;;;;4997794;28;20237;-72
2023/01/29 09:30:51;;;;;;;56.85;27.38;;;3.90;99.90;;;;;;4999517;28;20053;-72
2023/01/29 09:33:17;;;;;;;61.22;28.02;;;4.00;99.90;;;;;;4995985;28;20027;-70
2023/01/29 09:35:45;;;;;;;61.50;27.70;;;4.00;99.90;;;;;;5001250;28;20065;-70
2023/01/29 09:38:11;;;;;;;61.13;27.77;;;4.00;99.90;;;;;;4992624;28;20097;-71
2023/01/29 09:40:51;;;;;;;59.08;27.08;;;4.10;99.90;;;;;;5004667;28;20479;-72
2023/01/29 09:43:26;;;;;;;57.47;26.45;;;4.10;99.90;;;;;;4995902;28;20065;-72
2023/01/29 09:46:00;;;;;;;54.78;25.67;;;4.10;99.90;;;;;;4986261;28;20054;-73
2023/01/29 09:48:28;;;;;;;57.50;24.67;;;4.10;99.90;;;;;;5004183;28;20407;-71
2023/01/29 09:50:57;;;;;;;54.75;25.08;;;4.10;99.90;;;;;;5005706;28;20065;-70
2023/01/29 09:53:44;;;;;;;48.05;20.92;;;4.10;99.90;;;;;;5006112;28;20050;-73
2023/01/29 09:56:21;;;;;;;55.10;24.20;;;4.10;99.90;;;;;;5000728;28;20055;-71
2023/01/29 09:58:47;;;;;;;51.03;25.27;;;4.10;99.90;;;;;;5006666;28;20030;-71
2023/01/29 10:01:37;;;;;;;51.80;24.20;;;4.10;99.90;;;;;;5004133;28;20519;-72
2023/01/29 10:04:33;;;;;;;51.85;24.23;;;4.10;99.90;;;;;;4996100;28;20046;-73
2023/01/29 10:07:10;;;;;;;59.20;26.98;;;4.10;99.90;;;;;;4996625;28;20038;-74
2023/01/29 10:09:58;;;;;;;56.28;26.85;;;4.20;99.90;;;;;;5004390;28;20034;-70
2023/01/29 10:12:42;;;;;;;56.35;25.02;;;4.20;99.90;;;;;;5000939;28;20081;-74
2023/01/29 10:15:19;;;;;;;;;;;4.20;99.90;;;;;;5005652;28;20085;-74
2023/01/29 10:18:24;;;;;;;59.13;25.98;;;4.20;99.90;;;;;;5005032;28;19976;-73
2023/01/29 10:21:27;;;;;;;51.20;21.90;;;4.20;99.90;;;;;;5007111;28;20041;-73
2023/01/29 10:23:59;;;;;;;57.83;25.33;;;4.30;99.90;;;;;;5006346;28;20070;-74
2023/01/29 10:26:27;;;;;;;52.45;25.88;;;4.30;99.90;;;;;;5007813;28;20030;-74
2023/01/29 10:28:55;;;;;;;55.88;25.08;;;4.30;99.90;;;;;;4990733;28;20078;-74
2023/01/29 10:31:37;;;;;;;50.72;25.55;;;4.40;99.90;;;;;;5002492;28;20022;-71
2023/01/29 10:34:12;;;;;;;54.38;25.10;;;4.40;99.90;;;;;;4996084;28;20031;-73
2023/01/29 10:36:45;;;;;;;49.55;23.30;;;4.40;99.90;;;;;;4991579;28;20023;-73
2023/01/29 10:39:19;;;;;;;53.65;24.90;;;4.50;99.90;;;;;;4992867;28;20076;-72
2023/01/29 10:42:07;;;;;;;54.28;24.73;;;4.50;99.90;;;;;;4997933;28;20073;-73
2023/01/29 10:44:57;;;;;;;52.55;23.85;;;4.50;99.90;;;;;;4993908;28;20110;-74
2023/01/29 10:47:51;;;;;;;50.63;23.75;;;4.60;99.90;;;;;;4995788;28;20053;-74
2023/01/29 10:50:42;;;;;;;48.67;22.48;;;4.60;99.90;;;;;;4997761;28;20434;-72
2023/01/29 10:53:32;;;;;;;59.60;26.10;;;4.60;99.90;;;;;;4996079;28;20043;-73
2023/01/29 10:56:45;;;;;;;61.10;26.60;;;4.50;99.90;;;;;;5000586;28;20093;-72
2023/01/29 10:59:20;;;;;;;47.53;23.00;;;4.60;99.90;;;;;;4985656;28;20043;-74
2023/01/29 11:01:45;;;;;;;54.20;24.42;;;4.60;99.90;;;;;;4993581;28;20077;-76
2023/01/29 11:04:12;;;;;;;52.08;24.00;;;4.60;99.90;;;;;;4992900;28;20038;-73
2023/01/29 11:06:38;;;;;;;52.28;24.08;;;4.80;99.90;;;;;;5003908;28;20042;-72
2023/01/29 11:09:41;;;;;;;52.20;23.33;;;4.80;99.90;;;;;;5005121;28;20037;-75
2023/01/29 11:12:23;;;;;;;47.15;22.00;;;5.00;99.90;;;;;;5003848;28;20044;-73
2023/01/29 11:15:12;;;;;;;48.60;22.30;;;5.00;99.90;;;;;;4998552;28;20438;-75
2023/01/29 11:17:37;;;;;;;52.38;25.40;;;5.10;99.90;;;;;;5004133;28;20156;-73
2023/01/29 11:20:14;;;;;;;53.03;24.38;;;5.10;99.90;;;;;;5003773;28;20027;-73
2023/01/29 11:22:54;;;;;;;52.58;23.45;;;5.10;99.90;;;;;;5003715;28;20073;-73
2023/01/29 11:25:21;;;;;;;51.95;24.05;;;5.00;99.90;;;;;;5002737;28;20092;-72
2023/01/29 11:27:55;;;;;;;52.72;23.75;;;5.00;99.90;;;;;;5004790;28;20034;-70
2023/01/29 11:30:40;;;;;;;54.38;22.35;;;4.90;99.90;;;;;;5004982;28;20185;-71
2023/01/29 11:33:17;;;;;;;58.25;26.15;;;5.00;99.90;;;;;;5004990;28;20110;-74
2023/01/29 11:35:43;;;;;;;55.38;25.85;;;4.90;99.90;;;;;;5004783;28;20035;-72
2023/01/29 11:38:29;;;;;;;83.53;36.17;;;4.90;99.90;;;;;;5004768;28;20033;-72
2023/01/29 11:41:17;;;;;;;54.25;26.92;;;4.90;99.90;;;;;;5004382;28;20148;-77
2023/01/29 11:43:43;;;;;;;55.20;25.92;;;5.00;99.90;;;;;;5003927;28;20053;-72
2023/01/29 11:46:14;;;;;;;48.70;23.17;;;5.00;99.90;;;;;;5003809;28;20058;-73
2023/01/29 11:48:50;;;;;;;52.58;26.10;;;5.00;99.90;;;;;;4997757;28;20035;-71
2023/01/29 11:51:28;;;;;;;51.80;25.92;;;4.90;99.90;;;;;;5003778;28;20053;-71
2023/01/29 11:54:00;;;;;;;55.80;25.95;;;5.00;99.90;;;;;;5004252;28;20034;-74
2023/01/29 11:56:33;;;;;;;47.20;22.30;;;5.00;99.90;;;;;;5001785;28;20074;-76
2023/01/29 11:59:03;;;;;;;53.78;25.27;;;5.00;99.90;;;;;;5002878;28;20037;-74
2023/01/29 12:01:39;;;;;;;55.35;25.85;;;4.90;99.90;;;;;;5004350;28;20161;-72
2023/01/29 12:04:21;;;;;;;55.95;26.38;;;5.00;99.90;;;;;;5004349;28;20033;-72
2023/01/29 12:06:51;;;;;;;55.58;25.92;;;4.90;99.90;;;;;;5001069;28;20038;-71
2023/01/29 12:09:20;;;;;;;54.03;24.55;;;4.90;99.90;;;;;;4993523;28;20053;-74
2023/01/29 12:11:46;;;;;;;53.28;25.13;;;4.90;99.90;;;;;;4987826;28;20114;-73
2023/01/29 12:14:28;;;;;;;54.05;23.38;;;4.90;99.90;;;;;;4988421;28;20046;-77
2023/01/29 12:17:24;;;;;;;58.20;25.90;;;5.00;99.90;;;;;;4996240;28;20034;-74
2023/01/29 12:19:59;;;;;;;50.90;25.50;;;5.00;99.90;;;;;;4993389;28;20666;-71
2023/01/29 12:22:41;;;;;;;52.05;24.10;;;5.00;99.90;;;;;;4999811;28;20038;-76
2023/01/29 12:25:18;;;;;;;57.45;26.63;;;5.00;99.90;;;;;;5001868;28;20030;-72
2023/01/29 12:28:17;;;;;;;60.53;25.95;;;5.10;99.90;;;;;;5016538;28;20039;-71
2023/01/29 12:31:02;;;;;;;53.42;24.90;;;5.00;99.90;;;;;;5003496;28;20551;-70
2023/01/29 12:33:37;;;;;;;;;;;4.90;99.90;;;;;;5003003;28;20030;-75
2023/01/29 12:36:23;;;;;;;55.15;21.70;;;4.90;99.90;;;;;;4998370;28;19917;-75
2023/01/29 12:38:49;;;;;;;57.55;26.33;;;4.90;99.90;;;;;;5017922;28;20060;-75
2023/01/29 12:41:40;;;;;;;55.53;26.85;;;4.90;99.90;;;;;;5002863;28;20074;-72
2023/01/29 12:44:33;;;;;;;65.43;28.92;;;4.90;99.90;;;;;;5003256;28;20057;-73
2023/01/29 12:47:03;;;;;;;60.40;28.30;;;4.90;99.90;;;;;;5003217;28;20109;-73
2023/01/29 12:49:34;;;;;;;52.42;24.63;;;5.00;99.90;;;;;;5004217;28;20026;-78
2023/01/29 12:52:08;;;;;;;54.55;26.85;;;5.00;99.90;;;;;;5003997;28;20030;-75
2023/01/29 12:54:40;;;;;;;54.05;25.10;;;4.80;99.90;;;;;;5001112;28;20463;-78
2023/01/29 12:57:44;;;;;;;60.30;27.95;;;4.90;99.90;;;;;;5002517;28;20107;-73
2023/01/29 13:00:21;;;;;;;59.15;30.23;;;4.90;99.90;;;;;;4986029;28;20034;-71
2023/01/29 13:02:52;;;;;;;62.28;26.40;;;4.90;99.90;;;;;;5011603;28;20391;-73
2023/01/29 13:05:46;;;;;;;51.58;23.42;;;5.00;99.90;;;;;;5008565;28;20038;-78
2023/01/29 13:08:23;;;;;;;60.63;26.85;;;5.10;99.90;;;;;;5003463;28;20511;-73
2023/01/29 13:10:52;;;;;;;60.08;26.98;;;5.00;99.90;;;;;;4997798;28;20046;-70
2023/01/29 13:13:31;;;;;;;54.13;26.60;;;5.10;99.90;;;;;;5002031;28;20038;-73
2023/01/29 13:15:59;;;;;;;61.38;28.08;;;5.10;99.90;;;;;;5018424;28;20041;-75
2023/01/29 13:18:48;;;;;;;65.63;29.33;;;5.10;99.90;;;;;;5003623;28;20042;-70
2023/01/29 13:21:21;;;;;;;55.85;26.35;;;5.10;99.90;;;;;;4988911;28;20033;-70
2023/01/29 13:23:50;;;;;;;52.50;23.08;;;5.20;99.90;;;;;;5020515;28;20140;-71
2023/01/29 13:26:20;;;;;;;61.17;28.98;;;5.20;99.90;;;;;;5004773;28;20030;-72
2023/01/29 13:28:46;;;;;;;57.30;27.25;;;5.10;99.90;;;;;;5004879;28;20031;-71
2023/01/29 13:31:31;;;;;;;61.25;28.27;;;5.10;99.90;;;;;;5006145;28;20026;-70
2023/01/29 13:34:21;;;;;;;65.25;29.08;;;5.10;99.90;;;;;;5006871;28;20026;-72